Time;durP1;ratioP1;P1;durP2;ratioP2;P2;SDS_P1;SDS_P2;PMS_P1;PMS_P2;Temp;Humidity;BMP_temperature;BMP_pressure;BME280_temperature;BME280_humidity;BME280_pressure;Samples;Min_cycle;Max_cycle;Signal;HPM_P1;HPM_P2
2021/03/06 00:00:30;;;;;;;145.93;61.53;;;;;;;-3.28;78.95;100138.81;123411;1103;64908;-76
2021/03/06 00:03:15;;;;;;;202.30;80.70;;;;;;;-3.31;79.31;100141.40;123797;1102;64908;-76
2021/03/06 00:05:42;;;;;;;207.27;85.33;;;;;;;-3.35;79.79;100150.04;123353;1102;65007;-76
2021/03/06 00:08:08;;;;;;;194.50;79.50;;;;;;;-3.37;79.13;100146.54;123315;1102;64981;-76
2021/03/06 00:10:35;;;;;;;170.95;73.05;;;;;;;-3.41;79.66;100153.47;123421;1102;65218;-76
2021/03/06 00:13:01;;;;;;;221.27;89.63;;;;;;;-3.49;79.04;100157.75;123326;1102;64873;-76
2021/03/06 00:15:28;;;;;;;221.50;83.93;;;;;;;-3.50;80.02;100150.81;123362;1102;64860;-75
2021/03/06 00:17:54;;;;;;;123.30;56.67;;;;;;;-3.48;79.94;100154.27;123372;1102;65052;-76
2021/03/06 00:20:22;;;;;;;76.47;36.30;;;;;;;-3.53;79.31;100155.97;123412;1105;65084;-76
2021/03/06 00:22:52;;;;;;;78.75;38.35;;;;;;;-3.55;79.76;100150.76;123425;1102;64909;-77
2021/03/06 00:25:21;;;;;;;86.60;42.77;;;;;;;-3.59;79.54;100163.73;123371;1102;64947;-79
2021/03/06 00:27:47;;;;;;;170.30;67.87;;;;;;;-3.61;79.66;100168.05;123506;1105;64889;-76
2021/03/06 00:30:16;;;;;;;70.53;37.50;;;;;;;-3.62;79.63;100175.00;123760;1102;64936;-77
2021/03/06 00:32:45;;;;;;;70.83;38.33;;;;;;;-3.61;80.00;100168.92;123810;1101;64930;-77
2021/03/06 00:35:12;;;;;;;121.97;50.73;;;;;;;-3.60;79.83;100168.08;123801;1102;64907;-77
2021/03/06 00:37:39;;;;;;;90.87;43.37;;;;;;;-3.59;80.14;100168.95;123405;1102;64953;-76
2021/03/06 00:40:08;;;;;;;67.30;36.73;;;;;;;-3.64;80.59;100161.08;123772;1102;64905;-77
2021/03/06 00:42:35;;;;;;;77.40;37.30;;;;;;;-3.63;80.78;100164.59;123852;1102;64933;-77
2021/03/06 00:45:02;;;;;;;72.03;37.87;;;;;;;-3.58;80.59;100166.37;123713;1102;64991;-76
2021/03/06 00:47:28;;;;;;;67.95;39.60;;;;;;;-3.52;79.99;100154.26;123729;1102;64921;-76
2021/03/06 00:49:55;;;;;;;64.77;39.57;;;;;;;-3.52;79.97;100159.47;123766;1102;64943;-76
2021/03/06 00:52:21;;;;;;;66.70;40.20;;;;;;;-3.49;80.08;100162.09;123766;1102;64911;-76
2021/03/06 00:54:48;;;;;;;62.73;40.10;;;;;;;-3.50;80.67;100160.33;123753;1102;64902;-75
2021/03/06 00:57:14;;;;;;;66.37;38.80;;;;;;;-3.55;80.02;100160.31;123390;1103;64982;-75
2021/03/06 00:59:41;;;;;;;69.13;42.37;;;;;;;-3.59;80.06;100163.73;123449;1102;64943;-76
2021/03/06 01:02:07;;;;;;;61.83;38.40;;;;;;;-3.60;80.78;100162.87;123416;1102;64893;-77
2021/03/06 01:04:33;;;;;;;76.07;43.20;;;;;;;-3.66;80.52;100167.14;123416;1102;64914;-77
2021/03/06 01:07:00;;;;;;;78.03;42.40;;;;;;;-3.71;80.92;100167.12;123774;1102;64857;-77
2021/03/06 01:09:27;;;;;;;79.57;42.07;;;;;;;-3.74;80.33;100167.06;123781;1102;65008;-75
2021/03/06 01:11:53;;;;;;;75.85;43.80;;;;;;;-3.78;81.09;100180.93;123769;1102;64947;-77
2021/03/06 01:14:19;;;;;;;81.77;42.13;;;;;;;-3.82;80.46;100184.34;123788;1102;65014;-76
2021/03/06 01:16:46;;;;;;;82.60;44.15;;;;;;;-3.81;81.23;100179.16;123766;1102;64892;-76
2021/03/06 01:19:12;;;;;;;72.27;40.03;;;;;;;-3.83;80.71;100177.41;123411;1105;64911;-76
2021/03/06 01:21:38;;;;;;;61.50;35.07;;;;;;;-3.84;80.92;100179.14;123388;1102;65049;-76
2021/03/06 01:24:05;;;;;;;65.83;37.40;;;;;;;-3.83;80.76;100174.80;123749;1102;64905;-76
2021/03/06 01:26:32;;;;;;;63.40;37.67;;;;;;;-3.85;80.68;100179.98;123781;1102;64896;-75
2021/03/06 01:28:58;;;;;;;59.80;34.70;;;;;;;-3.87;81.62;100180.81;123801;1102;64908;-76
2021/03/06 01:31:24;;;;;;;82.13;43.33;;;;;;;-3.88;81.18;100181.69;123397;1102;65029;-76
2021/03/06 01:33:51;;;;;;;83.60;43.50;;;;;;;-3.89;81.38;100182.56;123766;1102;65020;-76
2021/03/06 01:36:17;;;;;;;72.43;40.57;;;;;;;-3.89;81.17;100178.22;123770;1102;64905;-77
2021/03/06 01:38:43;;;;;;;82.37;40.87;;;;;;;-3.87;81.62;100184.32;123706;1102;64951;-77
2021/03/06 01:41:09;;;;;;;77.43;39.60;;;;;;;-3.87;81.84;100175.61;123824;1102;64912;-78
2021/03/06 01:43:36;;;;;;;67.67;35.87;;;;;;;-3.83;81.37;100175.66;123759;1102;65088;-77
2021/03/06 01:46:03;;;;;;;67.43;38.40;;;;;;;-3.82;82.14;100184.34;123779;1102;64950;-77
2021/03/06 01:48:29;;;;;;;54.40;33.45;;;;;;;-3.82;82.10;100177.44;123757;1102;64937;-77
2021/03/06 01:50:55;;;;;;;62.77;35.90;;;;;;;-3.80;81.94;100174.83;123756;1102;64908;-77
2021/03/06 01:53:23;;;;;;;61.73;33.40;;;;;;;-3.77;82.14;100175.72;123756;1102;65298;-75
2021/03/06 01:55:50;;;;;;;57.60;31.33;;;;;;;-3.73;82.17;100187.06;123756;1102;64940;-76
2021/03/06 01:58:17;;;;;;;53.63;31.97;;;;;;;-3.72;81.97;100183.58;123756;1102;64908;-76
2021/03/06 02:00:44;;;;;;;48.17;30.10;;;;;;;-3.72;81.75;100183.58;123412;1102;64886;-76
2021/03/06 02:03:10;;;;;;;49.20;33.27;;;;;;;-3.72;82.33;100180.98;123746;1102;64937;-76
2021/03/06 02:05:37;;;;;;;50.67;33.50;;;;;;;-3.71;82.25;100168.82;123789;1102;64933;-75
2021/03/06 02:08:04;;;;;;;52.87;32.40;;;;;;;-3.73;82.49;100171.44;123407;1102;65049;-76
2021/03/06 02:10:36;;;;;;;62.85;35.40;;;;;;;-3.72;81.80;100180.98;123794;1102;64835;-76
2021/03/06 02:13:21;;;;;;;52.60;30.80;;;;;;;-3.73;81.88;100171.44;123749;1102;64892;-77
2021/03/06 02:16:03;;;;;;;60.40;34.90;;;;;;;-3.71;82.81;100174.94;123383;1102;64892;-76
2021/03/06 02:18:37;;;;;;;52.60;30.07;;;;;;;-3.71;82.93;100177.53;123821;1102;64911;-77
2021/03/06 02:21:33;;;;;;;58.15;32.20;;;;;;;-3.75;82.80;100180.95;123751;1102;64857;-77
2021/03/06 02:24:09;;;;;;;52.03;34.13;;;;;;;-3.77;81.84;100190.48;123785;1102;65362;-77
2021/03/06 02:27:02;;;;;;;44.63;28.37;;;;;;;-3.77;82.95;100193.95;123736;1102;64889;-77
2021/03/06 02:29:40;;;;;;;43.33;27.90;;;;;;;-3.75;83.01;100187.03;123783;1102;65224;-76
2021/03/06 02:32:18;;;;;;;48.30;28.35;;;;;;;-3.76;82.76;100190.51;123837;1102;64909;-76
2021/03/06 02:34:51;;;;;;;48.40;28.03;;;;;;;-3.78;82.47;100194.82;123745;1102;64962;-76
2021/03/06 02:37:22;;;;;;;54.00;33.93;;;;;;;-3.78;82.53;100193.95;123760;1102;64937;-76
2021/03/06 02:39:52;;;;;;;46.93;34.97;;;;;;;-3.80;82.58;100195.66;123458;1102;64921;-77
2021/03/06 02:42:23;;;;;;;47.03;30.30;;;;;;;-3.81;82.85;100196.53;123813;1102;65225;-76
2021/03/06 02:44:51;;;;;;;39.93;26.50;;;;;;;-3.80;82.58;100199.13;123763;1102;64905;-78
2021/03/06 02:47:18;;;;;;;46.80;29.37;;;;;;;-3.80;82.68;100198.27;123790;1102;64931;-76
2021/03/06 02:49:50;;;;;;;49.55;29.60;;;;;;;-3.80;82.43;100204.34;123764;1102;64908;-77
2021/03/06 02:52:17;;;;;;;46.83;28.00;;;;;;;-3.81;82.62;100189.58;123807;1102;64932;-76
2021/03/06 02:54:44;;;;;;;44.45;29.90;;;;;;;-3.81;82.35;100191.32;123762;1102;64885;-76
2021/03/06 02:57:18;;;;;;;41.13;28.90;;;;;;;-3.81;82.28;100202.61;123397;1102;64910;-77
2021/03/06 02:59:57;;;;;;;44.30;25.75;;;;;;;-3.81;82.21;100197.39;123772;1102;65091;-77
2021/03/06 03:03:14;;;;;;;47.90;27.53;;;;;;;-3.82;82.96;100211.29;123770;1102;64885;-77
2021/03/06 03:05:50;;;;;;;39.33;25.97;;;;;;;-3.83;83.36;100209.52;123224;1102;65014;-76
2021/03/06 03:08:34;;;;;;;47.80;28.33;;;;;;;-3.81;82.48;100218.23;123432;1102;64984;-76
2021/03/06 03:11:05;;;;;;;42.90;27.50;;;;;;;-3.81;83.24;100222.58;123420;1102;64829;-76
2021/03/06 03:13:48;;;;;;;41.37;28.47;;;;;;;-3.86;82.36;100219.91;123752;1102;64978;-77
2021/03/06 03:16:20;;;;;;;48.87;29.70;;;;;;;-3.88;82.85;100219.02;123440;1102;64972;-76
2021/03/06 03:18:52;;;;;;;57.83;34.07;;;;;;;-3.91;82.88;100231.14;123479;1102;64908;-76
2021/03/06 03:21:23;;;;;;;53.07;32.03;;;;;;;-3.92;82.95;100226.77;123800;1101;64911;-76
2021/03/06 03:23:57;;;;;;;50.30;30.80;;;;;;;-3.93;83.13;100225.90;123809;1102;64908;-77
2021/03/06 03:26:27;;;;;;;49.93;30.00;;;;;;;-3.96;83.35;100231.08;123780;1102;64856;-76
2021/03/06 03:28:55;;;;;;;48.00;30.67;;;;;;;-3.98;82.70;100236.28;123830;1102;64889;-76
2021/03/06 03:31:24;;;;;;;53.10;31.33;;;;;;;-3.98;83.11;100232.78;123802;1102;64934;-76
2021/03/06 03:33:52;;;;;;;45.10;30.48;;;;;;;-3.98;83.05;100240.59;123861;1102;65013;-77
2021/03/06 03:36:23;;;;;;;44.75;31.20;;;;;;;-3.98;82.70;100245.80;123822;1102;64860;-76
2021/03/06 03:38:50;;;;;;;43.30;27.85;;;;;;;-4.01;82.73;100237.95;123793;1102;64905;-76
2021/03/06 03:41:17;;;;;;;42.40;26.97;;;;;;;-4.00;83.23;100239.73;123813;1102;64942;-77
2021/03/06 03:43:45;;;;;;;41.43;26.63;;;;;;;-4.01;83.62;100238.83;123805;1101;64921;-75
2021/03/06 03:46:12;;;;;;;37.40;27.87;;;;;;;-4.04;83.05;100238.80;123759;1102;64921;-77
2021/03/06 03:48:43;;;;;;;47.90;32.00;;;;;;;-4.01;83.64;100241.43;123396;1102;64908;-78
2021/03/06 03:51:11;;;;;;;44.60;33.73;;;;;;;-4.00;82.90;100252.75;123750;1101;64953;-76
2021/03/06 03:53:38;;;;;;;43.47;29.20;;;;;;;-4.05;83.20;100249.21;123416;1102;65068;-76
2021/03/06 03:56:07;;;;;;;43.90;29.97;;;;;;;-4.04;83.04;100245.73;123413;1102;65535;-76
2021/03/06 03:58:33;;;;;;;42.07;27.70;;;;;;;-4.08;83.14;100263.06;123477;1104;64994;-75
2021/03/06 04:01:01;;;;;;;46.50;29.40;;;;;;;-4.04;83.00;100264.83;123842;1102;64831;-76
2021/03/06 04:03:28;;;;;;;42.50;28.07;;;;;;;-4.06;82.98;100260.45;123460;1102;64926;-76
2021/03/06 04:05:59;;;;;;;43.83;27.77;;;;;;;-4.09;83.05;100255.22;123794;1102;64853;-76
2021/03/06 04:08:25;;;;;;;45.93;28.43;;;;;;;-4.10;83.65;100248.27;123794;1102;65219;-77
2021/03/06 04:10:52;;;;;;;44.67;28.57;;;;;;;-4.11;83.37;100257.79;123433;1102;64940;-76
2021/03/06 04:13:18;;;;;;;42.97;28.30;;;;;;;-4.11;83.46;100257.79;123477;1102;64955;-76
2021/03/06 04:15:44;;;;;;;43.80;28.70;;;;;;;-4.14;83.31;100260.36;123412;1102;64943;-76
2021/03/06 04:18:11;;;;;;;41.30;28.67;;;;;;;-4.14;83.17;100251.68;123781;1102;65301;-77
2021/03/06 04:20:37;;;;;;;49.00;30.43;;;;;;;-4.12;83.13;100260.39;123395;1102;64917;-77
2021/03/06 04:23:04;;;;;;;46.30;31.85;;;;;;;-4.08;83.16;100256.95;123382;1102;64857;-77
2021/03/06 04:25:30;;;;;;;46.50;32.37;;;;;;;-4.08;84.04;100260.45;123783;1102;64886;-76
2021/03/06 04:27:57;;;;;;;50.77;32.73;;;;;;;-4.07;83.87;100269.13;123415;1102;64991;-76
2021/03/06 04:30:24;;;;;;;41.83;28.27;;;;;;;-4.06;83.17;100274.34;123808;1102;64933;-77
2021/03/06 04:32:50;;;;;;;41.47;27.73;;;;;;;-4.08;83.76;100276.08;123812;1101;65014;-78
2021/03/06 04:35:17;;;;;;;41.23;27.60;;;;;;;-4.08;83.21;100277.78;123800;1102;64904;-78
2021/03/06 04:37:43;;;;;;;39.47;28.83;;;;;;;-4.09;83.18;100278.65;123363;1105;64937;-75
2021/03/06 04:40:12;;;;;;;44.50;27.77;;;;;;;-4.08;83.26;100278.68;123745;1102;65377;-76
2021/03/06 04:42:39;;;;;;;39.53;27.40;;;;;;;-4.06;83.81;100286.49;123806;1102;64997;-76
2021/03/06 04:45:07;;;;;;;40.90;28.07;;;;;;;-4.07;83.27;100283.02;123784;1102;64889;-77
2021/03/06 04:47:34;;;;;;;40.57;26.10;;;;;;;-4.08;83.33;100286.48;123530;1102;65327;-77
2021/03/06 04:50:01;;;;;;;40.20;26.73;;;;;;;-4.10;83.63;100282.98;123457;1102;64905;-77
2021/03/06 04:52:27;;;;;;;39.13;26.10;;;;;;;-4.10;83.25;100288.19;123822;1102;64934;-77
2021/03/06 04:54:53;;;;;;;38.33;25.43;;;;;;;-4.08;83.59;100296.91;123792;1102;64914;-77
2021/03/06 04:57:20;;;;;;;40.15;25.25;;;;;;;-4.08;84.14;100299.51;123801;1102;64831;-76
2021/03/06 04:59:48;;;;;;;35.03;26.03;;;;;;;-4.08;84.11;100309.92;123824;1102;64910;-77
2021/03/06 05:02:14;;;;;;;35.85;25.10;;;;;;;-4.06;83.33;100302.98;123771;1102;64889;-77
2021/03/06 05:04:41;;;;;;;40.67;26.80;;;;;;;-4.03;84.28;100302.15;123393;1102;65039;-75
2021/03/06 05:07:08;;;;;;;38.07;24.43;;;;;;;-3.99;83.84;100306.55;123417;1102;64910;-76
2021/03/06 05:09:34;;;;;;;39.60;25.27;;;;;;;-3.98;84.38;100309.19;123392;1105;65000;-76
2021/03/06 05:12:00;;;;;;;39.08;24.12;;;;;;;-3.95;83.97;100310.93;123795;1102;64934;-75
2021/03/06 05:14:27;;;;;;;36.73;23.77;;;;;;;-3.94;83.94;100311.83;123462;1102;64895;-75
2021/03/06 05:16:53;;;;;;;37.60;24.30;;;;;;;-3.94;84.29;100315.30;123434;1102;64975;-77
2021/03/06 05:19:19;;;;;;;38.63;24.70;;;;;;;-3.92;83.95;100313.59;123429;1102;65377;-76
2021/03/06 05:21:46;;;;;;;38.07;23.87;;;;;;;-3.90;84.06;100319.67;123779;1102;64917;-77
2021/03/06 05:24:12;;;;;;;35.57;23.37;;;;;;;-3.88;83.43;100317.11;123377;1102;64854;-77
2021/03/06 05:26:39;;;;;;;35.55;24.45;;;;;;;-3.88;83.46;100312.77;123774;1101;64909;-76
2021/03/06 05:29:05;;;;;;;44.03;32.17;;;;;;;-3.84;83.37;100311.96;123369;1105;64940;-76
2021/03/06 05:31:32;;;;;;;36.63;28.80;;;;;;;-3.81;83.17;100314.59;123761;1102;64882;-77
2021/03/06 05:33:58;;;;;;;37.27;26.37;;;;;;;-3.73;83.83;100322.52;123766;1102;64940;-76
2021/03/06 05:36:24;;;;;;;36.03;23.97;;;;;;;-3.67;83.51;100313.89;123776;1102;64844;-76
2021/03/06 05:38:51;;;;;;;35.97;23.97;;;;;;;-3.56;83.18;100320.95;123411;1102;64991;-78
2021/03/06 05:41:21;;;;;;;37.07;24.40;;;;;;;-3.46;83.20;100315.87;123776;1101;65090;-77
2021/03/06 05:43:48;;;;;;;40.00;26.65;;;;;;;-3.33;83.47;100316.01;123396;1105;64966;-77
2021/03/06 05:46:15;;;;;;;37.67;24.30;;;;;;;-3.12;83.15;100317.09;123776;1102;64905;-77
2021/03/06 05:48:41;;;;;;;36.90;24.67;;;;;;;-2.98;82.11;100312.86;123814;1102;64908;-75
2021/03/06 05:51:07;;;;;;;36.25;24.20;;;;;;;-2.91;82.57;100316.41;123419;1103;64908;-76
2021/03/06 05:53:38;;;;;;;37.40;23.60;;;;;;;-2.98;82.68;100317.21;123750;1102;65352;-77
2021/03/06 05:56:07;;;;;;;34.87;21.37;;;;;;;-2.99;82.19;100315.48;123776;1102;64864;-76
2021/03/06 05:58:35;;;;;;;38.90;23.77;;;;;;;-2.97;82.29;100316.38;123807;1102;64937;-76
2021/03/06 06:01:03;;;;;;;36.73;23.70;;;;;;;-2.96;82.71;100321.58;123480;1102;64925;-76
2021/03/06 06:03:31;;;;;;;38.40;25.20;;;;;;;-2.92;82.62;100325.11;123830;1101;64908;-76
2021/03/06 06:05:58;;;;;;;37.10;22.10;;;;;;;-2.89;82.86;100328.61;123746;1102;64889;-77
2021/03/06 06:08:26;;;;;;;37.60;21.05;;;;;;;-2.84;82.42;100333.88;123810;1102;65286;-76
2021/03/06 06:10:52;;;;;;;37.33;22.40;;;;;;;-2.79;82.79;100336.50;123385;1102;64971;-76
2021/03/06 06:13:18;;;;;;;32.70;21.75;;;;;;;-2.72;82.83;100335.70;123785;1102;64912;-76
2021/03/06 06:15:45;;;;;;;35.37;22.33;;;;;;;-2.67;82.32;100349.66;123768;1102;65391;-76
2021/03/06 06:18:12;;;;;;;36.68;23.07;;;;;;;-2.62;82.98;100347.97;123380;1102;64991;-77
2021/03/06 06:20:39;;;;;;;35.17;22.53;;;;;;;-2.56;82.53;100350.61;123446;1102;64961;-77
2021/03/06 06:23:16;;;;;;;39.17;23.63;;;;;;;-2.49;82.39;100355.03;123784;1102;64860;-76
2021/03/06 06:25:45;;;;;;;34.40;22.60;;;;;;;-2.41;81.99;100362.92;123784;1102;64911;-76
2021/03/06 06:28:12;;;;;;;32.65;21.60;;;;;;;-2.33;82.33;100355.15;123804;1102;64879;-77
2021/03/06 06:30:39;;;;;;;32.50;20.73;;;;;;;-2.28;82.00;100363.89;123735;1101;65134;-76
2021/03/06 06:33:05;;;;;;;39.25;23.80;;;;;;;-2.22;81.79;100364.80;123465;1105;64918;-75
2021/03/06 06:35:42;;;;;;;34.47;22.47;;;;;;;-2.16;82.24;100365.70;123372;1102;65373;-76
2021/03/06 06:38:09;;;;;;;36.53;23.57;;;;;;;-2.09;81.92;100377.95;123809;1102;65371;-77
2021/03/06 06:40:38;;;;;;;36.33;23.17;;;;;;;-2.03;82.07;100375.36;123453;1102;64995;-76
2021/03/06 06:43:26;;;;;;;31.00;21.93;;;;;;;-1.96;82.28;100384.12;123802;1102;64911;-76
2021/03/06 06:45:52;;;;;;;31.03;19.40;;;;;;;-1.90;82.03;100377.19;123441;1102;64953;-76
2021/03/06 06:48:19;;;;;;;39.33;23.20;;;;;;;-1.82;81.73;100374.61;123801;1101;64885;-76
2021/03/06 06:50:45;;;;;;;30.67;20.77;;;;;;;-1.73;81.54;100371.20;123463;1102;64835;-76
2021/03/06 06:53:25;;;;;;;34.07;22.47;;;;;;;-1.69;82.06;100384.27;123796;1102;64959;-76
2021/03/06 06:55:52;;;;;;;29.67;19.77;;;;;;;-1.63;80.94;100383.45;123761;1102;64940;-76
2021/03/06 06:58:32;;;;;;;32.20;19.77;;;;;;;-1.60;81.43;100384.33;123413;1102;65006;-77
2021/03/06 07:00:59;;;;;;;27.40;18.60;;;;;;;-1.57;80.81;100388.70;123760;1101;64892;-76
2021/03/06 07:03:25;;;;;;;31.03;21.67;;;;;;;-1.52;81.05;100386.11;123811;1102;64951;-77
2021/03/06 07:05:51;;;;;;;35.50;21.95;;;;;;;-1.50;80.27;100387.87;123413;1102;64955;-76
2021/03/06 07:08:25;;;;;;;30.10;18.47;;;;;;;-1.44;80.81;100392.25;123770;1101;64930;-77
2021/03/06 07:10:52;;;;;;;30.43;20.73;;;;;;;-1.38;80.83;100397.48;123811;1102;65338;-77
2021/03/06 07:13:19;;;;;;;33.20;20.67;;;;;;;-1.33;80.55;100401.86;123753;1101;64905;-77
2021/03/06 07:15:58;;;;;;;35.17;21.90;;;;;;;-1.25;80.69;100398.41;123409;1102;64956;-77
2021/03/06 07:18:25;;;;;;;33.77;21.57;;;;;;;-1.19;80.44;100407.14;123443;1102;64921;-75
2021/03/06 07:20:53;;;;;;;34.37;21.93;;;;;;;-1.10;80.24;100408.94;123425;1102;64988;-77
2021/03/06 07:23:24;;;;;;;31.57;21.53;;;;;;;-1.08;79.82;100395.84;123435;1102;64895;-77
2021/03/06 07:25:56;;;;;;;33.10;21.27;;;;;;;-1.02;79.24;100407.21;123446;1102;64914;-76
2021/03/06 07:28:24;;;;;;;30.97;19.73;;;;;;;-0.95;78.92;100400.23;123436;1102;64992;-76
2021/03/06 07:30:51;;;;;;;35.30;22.07;;;;;;;-0.92;79.56;100406.37;123876;1102;64937;-77
2021/03/06 07:33:19;;;;;;;34.40;21.40;;;;;;;-0.83;79.27;100410.73;123372;1102;64932;-77
2021/03/06 07:35:48;;;;;;;35.40;22.27;;;;;;;-0.75;79.92;100414.24;123806;1102;64981;-76
2021/03/06 07:38:17;;;;;;;36.85;21.33;;;;;;;-0.67;79.07;100406.41;123815;1102;64844;-76
2021/03/06 07:40:59;;;;;;;32.70;21.20;;;;;;;-0.66;78.77;100408.14;123862;1102;64895;-76
2021/03/06 07:43:31;;;;;;;28.93;18.53;;;;;;;-0.58;77.74;100414.28;123816;1102;64911;-77
2021/03/06 07:45:59;;;;;;;28.13;17.80;;;;;;;-0.59;77.76;100406.41;123821;1102;64981;-77
2021/03/06 07:48:30;;;;;;;29.60;18.20;;;;;;;-0.54;78.10;100409.91;123756;1100;64972;-76
2021/03/06 07:50:58;;;;;;;26.83;17.17;;;;;;;-0.51;77.59;100410.78;123734;1102;64902;-77
2021/03/06 07:53:27;;;;;;;27.30;16.90;;;;;;;-0.46;77.97;100411.66;123780;1102;64909;-77
2021/03/06 07:55:54;;;;;;;27.57;16.13;;;;;;;-0.37;77.90;100412.53;123767;1102;64864;-76
2021/03/06 07:58:22;;;;;;;31.43;19.40;;;;;;;-0.30;77.64;100415.16;123415;1102;64902;-77
2021/03/06 08:00:50;;;;;;;25.87;16.07;;;;;;;-0.24;77.47;100409.03;123430;1102;64885;-76
2021/03/06 08:03:35;;;;;;;25.73;15.67;;;;;;;-0.17;76.77;100413.41;123729;1102;65062;-76
2021/03/06 08:06:19;;;;;;;26.37;16.23;;;;;;;-0.11;77.07;100410.77;123796;1102;65266;-76
2021/03/06 08:08:45;;;;;;;23.10;16.03;;;;;;;-0.04;76.36;100415.14;123403;1102;64921;-77
2021/03/06 08:11:13;;;;;;;21.30;14.00;;;;;;;0.01;76.64;100407.28;123771;1102;65039;-76
2021/03/06 08:13:47;;;;;;;22.23;14.23;;;;;;;0.04;74.65;100403.78;123778;1102;64895;-76
2021/03/06 08:16:19;;;;;;;23.73;14.40;;;;;;;0.05;75.66;100400.28;123452;1102;65371;-77
2021/03/06 08:18:47;;;;;;;26.90;15.17;;;;;;;0.13;75.32;100403.75;123433;1102;64936;-77
2021/03/06 08:21:32;;;;;;;21.53;13.67;;;;;;;0.18;74.77;100397.63;123761;1101;64891;-76
2021/03/06 08:24:14;;;;;;;25.13;14.67;;;;;;;0.25;75.24;100401.12;123749;1102;64908;-76
2021/03/06 08:27:02;;;;;;;20.73;13.90;;;;;;;0.35;74.84;100413.33;123806;1100;64915;-75
2021/03/06 08:29:29;;;;;;;23.10;15.17;;;;;;;0.44;74.79;100408.05;123781;1102;64892;-77
2021/03/06 08:32:01;;;;;;;23.73;14.50;;;;;;;0.56;75.17;100401.91;123799;1102;64985;-77
2021/03/06 08:34:34;;;;;;;22.47;15.10;;;;;;;0.71;75.03;100402.71;123736;1102;64889;-77
2021/03/06 08:37:19;;;;;;;25.10;15.03;;;;;;;0.84;75.09;100401.77;123725;1102;64982;-77
2021/03/06 08:40:03;;;;;;;26.53;15.67;;;;;;;0.98;74.81;100410.47;123770;1101;64889;-77
2021/03/06 08:42:31;;;;;;;20.03;12.57;;;;;;;1.19;74.14;100403.36;123810;1102;64950;-76
2021/03/06 08:45:00;;;;;;;20.70;13.90;;;;;;;1.38;73.46;100404.11;123774;1102;65279;-79
2021/03/06 08:47:30;;;;;;;21.90;12.77;;;;;;;1.40;73.80;100397.96;123445;1102;64902;-76
2021/03/06 08:50:01;;;;;;;18.33;11.43;;;;;;;1.46;73.04;100397.91;123819;1102;64902;-76
2021/03/06 08:52:30;;;;;;;19.37;12.60;;;;;;;1.54;71.89;100389.97;123724;1102;64960;-77
2021/03/06 08:54:57;;;;;;;20.73;13.20;;;;;;;1.61;71.59;100402.19;123818;1102;64901;-77
2021/03/06 08:57:34;;;;;;;21.47;15.33;;;;;;;1.67;72.00;100402.13;123861;1101;64877;-77
2021/03/06 09:00:08;;;;;;;28.03;18.57;;;;;;;1.78;71.29;100391.52;123779;1102;64908;-77
2021/03/06 09:02:35;;;;;;;32.47;18.03;;;;;;;1.95;71.90;100392.26;123396;1102;64978;-76
2021/03/06 09:05:14;;;;;;;33.53;18.20;;;;;;;2.16;71.93;100391.17;123824;1102;64985;-77
2021/03/06 09:07:42;;;;;;;28.53;19.40;;;;;;;2.32;71.94;100389.25;123768;1102;64889;-77
2021/03/06 09:10:21;;;;;;;28.77;17.93;;;;;;;2.20;70.46;100392.00;123518;1102;64901;-77
2021/03/06 09:12:54;;;;;;;29.93;17.90;;;;;;;2.14;70.70;100398.20;123761;1102;64908;-77
2021/03/06 09:15:32;;;;;;;30.57;19.23;;;;;;;2.16;70.94;100398.20;123420;1102;64998;-77
2021/03/06 09:18:00;;;;;;;27.00;15.70;;;;;;;2.20;70.70;100397.27;123438;1102;64981;-77
2021/03/06 09:20:29;;;;;;;27.83;17.17;;;;;;;2.30;70.52;100404.17;123780;1102;64991;-77
2021/03/06 09:22:56;;;;;;;28.60;19.47;;;;;;;2.42;70.25;100403.16;123782;1102;64965;-77
2021/03/06 09:25:35;;;;;;;32.77;19.87;;;;;;;2.61;69.56;100401.21;123414;1102;64892;-77
2021/03/06 09:28:03;;;;;;;30.77;19.10;;;;;;;2.92;68.86;100406.08;123769;1102;65029;-77
2021/03/06 09:30:34;;;;;;;34.87;22.47;;;;;;;3.13;68.28;100397.02;123762;1102;64933;-77
2021/03/06 09:33:01;;;;;;;35.53;23.53;;;;;;;3.13;68.40;100395.24;123439;1102;65007;-77
2021/03/06 09:35:28;;;;;;;35.27;22.87;;;;;;;3.00;68.92;100406.84;123747;1102;65279;-77
2021/03/06 09:38:11;;;;;;;34.30;21.57;;;;;;;2.87;68.49;100408.79;123824;1102;65323;-77
2021/03/06 09:40:43;;;;;;;36.70;22.73;;;;;;;2.64;68.67;100407.30;123773;1102;65282;-77
2021/03/06 09:43:13;;;;;;;34.23;21.53;;;;;;;2.62;69.20;100409.06;123803;1102;65359;-76
2021/03/06 09:45:40;;;;;;;33.42;20.10;;;;;;;2.72;68.48;100408.98;123775;1102;64901;-77
2021/03/06 09:48:12;;;;;;;33.97;20.63;;;;;;;2.77;68.65;100407.16;123769;1102;64988;-76
2021/03/06 09:50:39;;;;;;;36.23;21.67;;;;;;;2.70;67.59;100408.98;123803;1102;65306;-76
2021/03/06 09:53:18;;;;;;;38.77;23.13;;;;;;;2.79;68.80;100413.25;123750;1102;65349;-77
2021/03/06 09:55:46;;;;;;;38.60;21.53;;;;;;;2.94;68.12;100404.30;123795;1101;65170;-78
2021/03/06 09:58:23;;;;;;;34.10;20.27;;;;;;;3.07;67.83;100406.73;123442;1102;64965;-77
2021/03/06 10:00:51;;;;;;;31.35;19.30;;;;;;;3.37;68.22;100409.86;123414;1102;65007;-77
2021/03/06 10:03:29;;;;;;;32.67;19.50;;;;;;;3.65;67.07;100407.64;123835;1102;64911;-75
2021/03/06 10:05:59;;;;;;;28.47;18.60;;;;;;;4.01;67.21;100396.52;123811;1101;64888;-76
2021/03/06 10:08:28;;;;;;;21.43;13.50;;;;;;;4.24;65.69;100404.89;123353;1102;65285;-77
2021/03/06 10:10:56;;;;;;;19.93;13.03;;;;;;;4.24;64.57;100407.53;123809;1102;64985;-77
2021/03/06 10:13:23;;;;;;;22.43;14.20;;;;;;;4.11;63.35;100404.25;123810;1101;64908;-78
2021/03/06 10:15:52;;;;;;;26.90;17.03;;;;;;;3.99;64.44;100408.86;123818;1102;64905;-76
2021/03/06 10:18:20;;;;;;;29.03;18.73;;;;;;;3.95;64.10;100401.00;123757;1102;65068;-76
2021/03/06 10:20:48;;;;;;;26.90;18.63;;;;;;;3.87;64.21;100402.91;123857;1102;65036;-76
2021/03/06 10:23:29;;;;;;;31.63;19.73;;;;;;;3.84;64.74;100407.34;123785;1102;64934;-77
2021/03/06 10:26:13;;;;;;;29.90;18.70;;;;;;;3.82;64.41;100407.39;123818;1102;64905;-78
2021/03/06 10:28:39;;;;;;;30.27;19.57;;;;;;;3.86;65.07;100406.42;123754;1102;65010;-77
2021/03/06 10:31:23;;;;;;;30.53;19.60;;;;;;;3.91;64.60;100407.22;123431;1102;64933;-78
2021/03/06 10:33:50;;;;;;;31.73;18.67;;;;;;;3.87;64.38;100410.82;123806;1102;65039;-77
2021/03/06 10:36:17;;;;;;;29.23;19.23;;;;;;;4.03;65.11;100411.42;123765;1102;64941;-77
2021/03/06 10:38:44;;;;;;;31.60;20.17;;;;;;;4.35;65.13;100402.05;123825;1101;64934;-77
2021/03/06 10:41:19;;;;;;;27.80;16.80;;;;;;;4.70;65.17;100405.77;123809;1102;64943;-77
2021/03/06 10:43:53;;;;;;;28.13;17.97;;;;;;;4.91;64.12;100409.74;123802;1102;64940;-77
2021/03/06 10:46:30;;;;;;;29.10;17.13;;;;;;;4.74;63.02;100405.69;123818;1102;65017;-77
2021/03/06 10:49:02;;;;;;;27.97;17.00;;;;;;;4.52;62.28;100399.94;123776;1102;64866;-77
2021/03/06 10:51:53;;;;;;;27.17;17.30;;;;;;;4.54;63.60;100398.15;123462;1102;64971;-78
2021/03/06 10:54:22;;;;;;;24.90;16.43;;;;;;;4.51;63.34;100405.27;123776;1102;64905;-77
2021/03/06 10:57:03;;;;;;;28.63;17.63;;;;;;;4.58;63.46;100402.48;123831;1102;64908;-77
2021/03/06 10:59:34;;;;;;;24.17;14.93;;;;;;;4.52;61.33;100401.72;123465;1102;64979;-77
2021/03/06 11:02:01;;;;;;;19.17;12.43;;;;;;;4.54;60.00;100389.37;123774;1102;64886;-77
2021/03/06 11:04:33;;;;;;;22.23;13.07;;;;;;;4.68;60.45;100387.30;123791;1102;64889;-76
2021/03/06 11:07:09;;;;;;;17.40;10.70;;;;;;;4.88;59.35;100386.03;123755;1102;64873;-78
2021/03/06 11:09:40;;;;;;;17.03;10.70;;;;;;;5.01;57.89;100376.94;123376;1102;65072;-77
2021/03/06 11:12:21;;;;;;;17.47;11.27;;;;;;;5.06;57.75;100375.94;123779;1102;64831;-76
2021/03/06 11:15:04;;;;;;;19.60;12.05;;;;;;;4.95;59.84;100375.31;123497;1102;64918;-77
2021/03/06 11:17:31;;;;;;;20.37;12.60;;;;;;;5.13;59.24;100371.36;123779;1102;64908;-77